Time;durP1;ratioP1;P1;durP2;ratioP2;P2;SDS_P1;SDS_P2;PMS_P1;PMS_P2;Temp;Humidity;BMP_temperature;BMP_pressure;BME280_temperature;BME280_humidity;BME280_pressure;Samples;Min_cycle;Max_cycle;Signal;HPM_P1;HPM_P2
2022/12/01 00:02:24;;;;;;;64.00;39.97;;;7.70;99.90;;;;;;5032197;28;20037;-86
2022/12/01 00:04:50;;;;;;;30.67;18.80;;;7.70;99.90;;;;;;5032354;28;20099;-86
2022/12/01 00:07:15;;;;;;;42.22;23.73;;;7.70;99.90;;;;;;5031335;28;20102;-85
2022/12/01 00:12:25;;;;;;;58.63;39.05;;;7.80;99.90;;;;;;5032729;28;20052;-87
2022/12/01 00:14:53;;;;;;;54.55;33.97;;;7.80;99.90;;;;;;5032006;28;20477;-86
2022/12/01 00:17:20;;;;;;;30.10;18.63;;;7.80;99.90;;;;;;5032329;28;20038;-86
2022/12/01 00:19:46;;;;;;;28.08;17.77;;;7.90;99.90;;;;;;5030838;28;20033;-86
2022/12/01 00:22:11;;;;;;;28.38;18.25;;;7.90;99.90;;;;;;5032039;28;20049;-86
2022/12/01 00:24:37;;;;;;;35.60;23.13;;;7.90;99.90;;;;;;5032436;28;20052;-87
2022/12/01 00:27:02;;;;;;;28.92;18.42;;;7.90;99.90;;;;;;5031493;28;20045;-86
2022/12/01 00:29:28;;;;;;;28.88;19.08;;;7.90;99.90;;;;;;5032642;28;20025;-86
2022/12/01 00:31:54;;;;;;;28.75;20.55;;;7.80;99.90;;;;;;5030509;28;20482;-86
2022/12/01 00:34:24;;;;;;;45.38;30.50;;;7.70;99.90;;;;;;5030732;28;20468;-86
2022/12/01 00:36:50;;;;;;;26.25;17.55;;;7.70;99.90;;;;;;5030778;28;20091;-86
2022/12/01 00:39:16;;;;;;;26.83;18.60;;;7.70;99.90;;;;;;5031528;28;20033;-86
2022/12/01 00:41:41;;;;;;;28.08;18.17;;;7.70;99.90;;;;;;5034796;28;20380;-86
2022/12/01 00:44:07;;;;;;;24.90;17.13;;;7.70;99.90;;;;;;5035199;28;20033;-87
2022/12/01 00:46:33;;;;;;;34.95;23.20;;;7.70;99.90;;;;;;5035330;28;20057;-87
2022/12/01 00:48:58;;;;;;;27.55;16.75;;;7.50;99.90;;;;;;5036031;28;20029;-86
2022/12/01 00:51:24;;;;;;;32.38;21.00;;;7.50;99.90;;;;;;5036325;28;20032;-87
2022/12/01 00:53:49;;;;;;;24.08;16.00;;;7.40;99.90;;;;;;5036568;28;20017;-86
2022/12/01 00:56:15;;;;;;;23.33;16.42;;;7.40;99.90;;;;;;5035146;28;20449;-87
2022/12/01 00:58:40;;;;;;;21.65;15.48;;;7.60;99.90;;;;;;5035078;28;20025;-87
2022/12/01 01:01:06;;;;;;;26.33;18.25;;;7.60;99.90;;;;;;5036533;28;20026;-87
2022/12/01 01:03:33;;;;;;;23.55;15.90;;;7.40;99.90;;;;;;5035929;28;20505;-86
2022/12/01 01:06:08;;;;;;;28.90;20.45;;;7.40;99.90;;;;;;5036417;28;20480;-87
2022/12/01 01:08:35;;;;;;;27.05;18.33;;;7.60;99.90;;;;;;5035019;28;20425;-86
2022/12/01 01:11:01;;;;;;;29.45;20.25;;;7.50;99.90;;;;;;5034313;28;20029;-86
2022/12/01 01:13:27;;;;;;;26.98;21.00;;;7.50;99.90;;;;;;5035496;28;20379;-87
2022/12/01 01:16:02;;;;;;;28.50;21.00;;;7.50;99.90;;;;;;5035798;28;20073;-87
2022/12/01 01:18:27;;;;;;;27.30;18.00;;;7.50;99.90;;;;;;5034268;28;20029;-86
2022/12/01 01:21:03;;;;;;;27.27;16.58;;;7.40;99.90;;;;;;5034431;28;20564;-86
2022/12/01 01:23:29;;;;;;;25.83;22.13;;;7.40;99.90;;;;;;5033458;28;20037;-87
2022/12/01 01:26:03;;;;;;;25.05;16.42;;;7.40;99.90;;;;;;5032052;28;20079;-86
2022/12/01 01:28:30;;;;;;;22.40;15.38;;;7.50;99.90;;;;;;5034155;28;20505;-86
2022/12/01 01:30:55;;;;;;;24.35;15.73;;;7.50;99.90;;;;;;5033840;28;20112;-86
2022/12/01 01:33:21;;;;;;;22.45;16.05;;;7.50;99.90;;;;;;5035148;28;20136;-86
2022/12/01 01:35:47;;;;;;;25.48;17.25;;;7.50;99.90;;;;;;5034274;28;20036;-86
2022/12/01 01:38:12;;;;;;;20.60;15.10;;;7.50;99.90;;;;;;5033391;28;20021;-86
2022/12/01 01:40:43;;;;;;;24.20;16.02;;;7.40;99.90;;;;;;5032900;28;20123;-86
2022/12/01 01:43:15;;;;;;;23.67;15.55;;;7.50;99.90;;;;;;5032755;28;20038;-86
2022/12/01 01:45:41;;;;;;;23.70;15.30;;;7.50;99.90;;;;;;5034070;28;20087;-86
2022/12/01 01:48:08;;;;;;;22.50;15.95;;;7.40;99.90;;;;;;5032564;28;20025;-87
2022/12/01 01:50:34;;;;;;;20.58;15.40;;;7.30;99.90;;;;;;5033802;28;20029;-86
2022/12/01 01:53:07;;;;;;;25.08;15.75;;;7.40;99.90;;;;;;5033929;28;20466;-86
2022/12/01 01:55:34;;;;;;;22.83;15.05;;;7.30;99.90;;;;;;5034123;28;20113;-87
2022/12/01 01:58:03;;;;;;;21.58;14.80;;;7.50;99.90;;;;;;5034010;28;20021;-86
2022/12/01 02:00:29;;;;;;;24.95;15.88;;;7.20;99.90;;;;;;5032898;28;20068;-86
2022/12/01 02:02:56;;;;;;;23.85;15.35;;;7.30;99.90;;;;;;5032736;28;20165;-87
2022/12/01 02:05:28;;;;;;;23.88;15.80;;;7.30;99.90;;;;;;5033680;28;20528;-87
2022/12/01 02:07:55;;;;;;;22.65;14.88;;;7.40;99.90;;;;;;5033399;28;20029;-86
2022/12/01 02:10:28;;;;;;;22.63;14.88;;;7.30;99.90;;;;;;5033347;28;20040;-86
2022/12/01 02:13:03;;;;;;;24.58;16.00;;;7.30;99.90;;;;;;5032029;28;20091;-87
2022/12/01 02:15:50;;;;;;;21.15;15.30;;;7.20;99.90;;;;;;5033184;28;20021;-86
2022/12/01 02:18:35;;;;;;;24.00;16.13;;;7.20;99.90;;;;;;5033183;28;20374;-86
2022/12/01 02:21:30;;;;;;;22.20;15.70;;;7.20;99.90;;;;;;5032363;28;20363;-87
2022/12/01 02:24:27;;;;;;;24.33;16.53;;;7.20;99.90;;;;;;4987835;28;1303887;-87
2022/12/01 02:27:05;;;;;;;25.05;15.15;;;7.30;99.90;;;;;;5034114;28;20028;-86
2022/12/01 02:29:57;;;;;;;21.20;15.18;;;7.30;99.90;;;;;;5034359;28;20042;-86
2022/12/01 02:32:23;;;;;;;21.30;15.40;;;7.40;99.90;;;;;;5036022;28;20032;-86
2022/12/01 02:35:07;;;;;;;23.27;16.33;;;7.40;99.90;;;;;;5045871;28;20025;-86
2022/12/01 02:38:10;;;;;;;23.15;16.52;;;7.30;99.90;;;;;;5033383;28;20030;-86
2022/12/01 02:40:53;;;;;;;21.25;15.70;;;7.40;99.90;;;;;;5032959;28;20021;-86
2022/12/01 02:43:22;;;;;;;21.65;15.52;;;7.30;99.90;;;;;;5034497;28;20115;-86
2022/12/01 02:46:16;;;;;;;21.23;15.85;;;7.30;99.90;;;;;;5033797;28;20025;-86
2022/12/01 02:48:44;;;;;;;20.67;14.65;;;7.30;99.90;;;;;;4992476;28;20082;-86
2022/12/01 02:51:21;;;;;;;21.60;15.82;;;7.40;99.90;;;;;;4992617;28;20034;-86
2022/12/01 02:53:48;;;;;;;22.05;15.98;;;7.40;99.90;;;;;;4976090;28;20030;-86
2022/12/01 02:56:18;;;;;;;20.85;15.18;;;7.40;99.90;;;;;;4976246;28;20045;-86
2022/12/01 02:58:44;;;;;;;21.77;15.30;;;7.60;99.90;;;;;;4991908;28;20027;-87
2022/12/01 03:01:21;;;;;;;22.48;15.63;;;7.20;99.90;;;;;;4992392;28;20153;-86
2022/12/01 03:04:02;;;;;;;19.95;14.82;;;7.20;99.90;;;;;;4991032;28;20042;-87
2022/12/01 03:06:54;;;;;;;19.05;13.95;;;7.30;99.90;;;;;;4992847;28;20100;-86
2022/12/01 03:09:36;;;;;;;18.65;13.70;;;7.30;99.90;;;;;;4992338;28;20101;-87
2022/12/01 03:12:30;;;;;;;17.65;13.40;;;7.20;99.90;;;;;;4992079;28;20034;-86
2022/12/01 03:15:07;;;;;;;18.30;14.00;;;7.30;99.90;;;;;;4989999;28;20053;-86
2022/12/01 03:17:48;;;;;;;18.88;13.38;;;7.30;99.90;;;;;;4991714;28;20113;-87
2022/12/01 03:20:22;;;;;;;18.08;13.88;;;7.30;99.90;;;;;;4992014;28;20064;-86
2022/12/01 03:22:58;;;;;;;17.45;13.55;;;7.30;99.90;;;;;;4992665;28;20084;-87
2022/12/01 03:25:26;;;;;;;23.33;14.52;;;7.20;99.90;;;;;;5005927;28;20464;-86
2022/12/01 03:27:55;;;;;;;19.05;13.55;;;7.10;99.90;;;;;;5031606;28;20118;-87
2022/12/01 03:30:27;;;;;;;19.63;13.73;;;7.40;99.90;;;;;;5032761;28;20065;-86
2022/12/01 03:33:17;;;;;;;18.20;13.90;;;7.10;99.90;;;;;;5039350;28;20013;-87
2022/12/01 03:36:23;;;;;;;17.65;14.00;;;7.10;99.90;;;;;;5033373;28;20033;-86
2022/12/01 03:38:55;;;;;;;18.92;14.00;;;7.10;99.90;;;;;;4971971;28;20113;-86
2022/12/01 03:41:26;;;;;;;19.58;13.75;;;7.10;99.90;;;;;;4972868;28;20043;-86
2022/12/01 03:44:00;;;;;;;19.70;13.88;;;7.00;99.90;;;;;;4952327;28;20047;-87
2022/12/01 03:46:45;;;;;;;20.20;14.48;;;7.10;99.90;;;;;;4953146;28;20035;-86
2022/12/01 03:49:13;;;;;;;22.63;14.25;;;7.10;99.90;;;;;;4969650;28;20038;-86
2022/12/01 03:51:45;;;;;;;20.05;14.18;;;7.00;99.90;;;;;;4972129;28;20034;-86
2022/12/01 03:54:25;;;;;;;17.33;13.45;;;7.00;99.90;;;;;;4972281;28;20113;-86
2022/12/01 03:56:59;;;;;;;16.83;13.75;;;6.90;99.90;;;;;;4971875;28;20035;-86
2022/12/01 03:59:26;;;;;;;18.98;13.98;;;6.90;99.90;;;;;;4971931;28;20438;-87
2022/12/01 04:01:52;;;;;;;19.15;13.63;;;6.90;99.90;;;;;;4971775;28;20039;-87
2022/12/01 04:04:17;;;;;;;17.52;13.48;;;6.80;99.90;;;;;;4971510;28;20046;-86
2022/12/01 04:06:48;;;;;;;19.60;14.15;;;6.90;99.90;;;;;;4955564;28;20038;-86
2022/12/01 04:09:14;;;;;;;16.20;12.73;;;7.00;99.90;;;;;;4971662;28;20042;-86
2022/12/01 04:14:25;;;;;;;18.33;13.82;;;7.00;99.90;;;;;;5032202;28;20056;-86
2022/12/01 04:16:51;;;;;;;18.80;13.77;;;7.10;99.90;;;;;;5031171;28;20409;-86
2022/12/01 04:19:17;;;;;;;18.17;13.02;;;6.90;99.90;;;;;;5031944;28;20086;-86
2022/12/01 04:21:42;;;;;;;16.67;12.48;;;7.00;99.90;;;;;;5032260;28;20056;-85
2022/12/01 04:24:08;;;;;;;20.02;13.57;;;7.00;99.90;;;;;;5031927;28;20053;-86
2022/12/01 04:26:35;;;;;;;18.58;13.27;;;6.80;99.90;;;;;;5030967;28;20033;-86
2022/12/01 04:29:04;;;;;;;18.55;13.55;;;6.80;99.90;;;;;;5030648;28;20088;-86
2022/12/01 04:31:30;;;;;;;18.35;13.65;;;6.70;99.90;;;;;;5030514;28;20117;-85
2022/12/01 04:33:57;;;;;;;19.80;13.75;;;7.10;99.90;;;;;;5037049;28;20117;-86
2022/12/01 04:36:24;;;;;;;24.67;13.57;;;6.80;99.90;;;;;;5031120;28;20029;-86
2022/12/01 04:38:50;;;;;;;18.38;13.45;;;6.80;99.90;;;;;;5032392;28;20034;-86
2022/12/01 04:41:16;;;;;;;17.70;13.07;;;6.80;99.90;;;;;;5030714;28;20145;-86
2022/12/01 04:43:42;;;;;;;20.27;13.75;;;6.80;99.90;;;;;;5032239;28;20060;-87
2022/12/01 04:46:08;;;;;;;18.98;13.55;;;6.80;99.90;;;;;;5031525;28;20033;-86
2022/12/01 04:48:34;;;;;;;17.38;12.80;;;6.80;99.90;;;;;;5032284;28;20029;-86
2022/12/01 04:51:01;;;;;;;18.00;12.80;;;6.80;99.90;;;;;;5030740;28;20025;-86
2022/12/01 04:53:27;;;;;;;27.98;13.80;;;6.80;99.90;;;;;;5030502;28;20033;-86
2022/12/01 04:55:52;;;;;;;19.23;13.48;;;6.90;99.90;;;;;;5030485;28;20497;-87
2022/12/01 04:58:18;;;;;;;19.08;14.10;;;6.80;99.90;;;;;;5031903;28;20065;-87
2022/12/01 05:00:44;;;;;;;18.05;13.55;;;6.80;99.90;;;;;;5031783;28;20029;-86
2022/12/01 05:03:09;;;;;;;18.25;13.82;;;6.90;99.90;;;;;;5032092;28;20034;-86
2022/12/01 05:05:35;;;;;;;18.00;14.05;;;6.90;99.90;;;;;;5030358;28;20045;-86
2022/12/01 05:08:00;;;;;;;18.08;14.13;;;6.90;99.90;;;;;;5032069;28;20076;-86
2022/12/01 05:10:26;;;;;;;20.00;14.45;;;6.90;99.90;;;;;;5029826;28;20037;-87
2022/12/01 05:12:52;;;;;;;19.83;14.70;;;6.90;99.90;;;;;;5030736;28;20029;-87
2022/12/01 05:15:17;;;;;;;20.98;14.23;;;6.90;99.90;;;;;;5030796;28;20116;-86
2022/12/01 05:17:43;;;;;;;19.52;14.30;;;6.90;99.90;;;;;;5031730;28;20040;-86
2022/12/01 05:23:01;;;;;;;20.33;14.25;;;6.90;99.90;;;;;;5031568;28;20043;-86
2022/12/01 05:25:26;;;;;;;20.02;14.40;;;7.00;99.90;;;;;;5031320;28;20045;-87
2022/12/01 05:27:52;;;;;;;17.90;14.25;;;7.00;99.90;;;;;;5034776;28;20489;-87
2022/12/01 05:30:17;;;;;;;19.85;13.98;;;7.00;99.90;;;;;;5034070;28;20409;-86
2022/12/01 05:32:43;;;;;;;20.10;14.57;;;7.10;99.90;;;;;;5036267;28;20068;-86
2022/12/01 05:35:09;;;;;;;21.75;14.27;;;7.00;99.90;;;;;;5033706;28;20025;-86
2022/12/01 05:37:34;;;;;;;29.17;15.45;;;7.00;99.90;;;;;;5034204;28;20033;-86
2022/12/01 05:40:00;;;;;;;21.90;14.13;;;7.00;99.90;;;;;;5034912;28;20033;-86
2022/12/01 05:42:26;;;;;;;20.23;14.20;;;6.90;99.90;;;;;;5035047;28;20029;-87
2022/12/01 05:44:52;;;;;;;22.27;14.90;;;6.90;99.90;;;;;;5034947;28;20140;-87
2022/12/01 05:47:17;;;;;;;21.85;15.25;;;6.80;99.90;;;;;;5035778;28;20083;-86
2022/12/01 05:49:43;;;;;;;20.38;14.98;;;7.00;99.90;;;;;;5033650;28;20029;-86
2022/12/01 05:52:09;;;;;;;24.40;14.40;;;7.00;99.90;;;;;;5033375;28;20022;-87
2022/12/01 05:54:34;;;;;;;20.10;15.38;;;6.80;99.90;;;;;;5034692;28;20116;-86
2022/12/01 05:57:00;;;;;;;22.73;14.80;;;6.80;99.90;;;;;;5034769;28;20033;-86
2022/12/01 05:59:26;;;;;;;23.35;15.13;;;6.90;99.90;;;;;;5035140;28;20041;-86
2022/12/01 06:01:52;;;;;;;21.05;15.45;;;6.80;99.90;;;;;;5034838;28;20402;-89
2022/12/01 06:04:17;;;;;;;22.45;15.55;;;6.80;99.90;;;;;;5035118;28;20041;-86
2022/12/01 06:06:43;;;;;;;20.15;14.30;;;6.80;99.90;;;;;;5034648;28;20026;-87
2022/12/01 06:09:09;;;;;;;21.42;14.50;;;6.80;99.90;;;;;;5033983;28;20108;-86
2022/12/01 06:11:35;;;;;;;22.83;14.45;;;7.00;99.90;;;;;;5035211;28;20035;-87
2022/12/01 06:14:00;;;;;;;22.85;15.55;;;6.90;99.90;;;;;;5034507;28;20034;-85
2022/12/01 06:16:26;;;;;;;24.40;15.32;;;6.90;99.90;;;;;;5034140;28;20411;-86
2022/12/01 06:18:52;;;;;;;22.20;13.95;;;6.90;99.90;;;;;;5034352;28;20478;-87
2022/12/01 06:21:17;;;;;;;22.58;15.45;;;6.90;99.90;;;;;;5033847;28;20481;-86
2022/12/01 06:23:43;;;;;;;24.85;15.43;;;6.90;99.90;;;;;;5033946;28;20044;-84
2022/12/01 06:26:09;;;;;;;24.08;15.18;;;6.80;99.90;;;;;;5034280;28;20401;-86
2022/12/01 06:28:34;;;;;;;22.83;15.60;;;6.80;99.90;;;;;;5033712;28;20037;-86
2022/12/01 06:31:00;;;;;;;20.38;14.93;;;6.70;99.90;;;;;;5034740;28;20025;-86
2022/12/01 06:33:25;;;;;;;23.80;15.77;;;6.70;99.90;;;;;;5037875;28;20056;-86
2022/12/01 06:36:02;;;;;;;20.88;15.25;;;6.70;99.90;;;;;;5033984;28;20094;-86
2022/12/01 06:38:33;;;;;;;19.73;14.45;;;6.60;99.90;;;;;;5033081;28;20041;-87
2022/12/01 06:41:00;;;;;;;21.73;14.93;;;6.80;99.90;;;;;;5034103;28;20033;-87
2022/12/01 06:43:25;;;;;;;30.85;17.70;;;6.80;99.90;;;;;;5034037;28;20033;-86
2022/12/01 06:45:51;;;;;;;24.98;16.15;;;6.90;99.90;;;;;;5034146;28;20021;-87
2022/12/01 06:48:17;;;;;;;30.30;16.55;;;6.60;99.90;;;;;;5033220;28;20397;-86
2022/12/01 06:50:43;;;;;;;26.05;17.63;;;6.60;99.90;;;;;;5033943;28;20025;-86
2022/12/01 06:53:09;;;;;;;23.75;17.02;;;6.70;99.90;;;;;;5033770;28;20022;-87
2022/12/01 06:55:36;;;;;;;25.77;19.25;;;6.70;99.90;;;;;;5034038;28;20037;-86
2022/12/01 06:58:02;;;;;;;24.15;16.92;;;6.60;99.90;;;;;;5034305;28;20049;-86
2022/12/01 07:00:28;;;;;;;31.77;22.27;;;6.60;99.90;;;;;;5033909;28;20039;-83
2022/12/01 07:02:54;;;;;;;23.05;16.48;;;6.60;99.90;;;;;;5032998;28;20116;-83
2022/12/01 07:05:19;;;;;;;20.48;15.10;;;6.70;99.90;;;;;;5032803;28;20075;-83
2022/12/01 07:07:45;;;;;;;26.45;16.58;;;6.80;99.90;;;;;;5033707;28;20108;-83
2022/12/01 07:10:12;;;;;;;22.50;16.20;;;6.80;99.90;;;;;;5031728;28;20022;-83
2022/12/01 07:12:38;;;;;;;24.73;16.23;;;6.90;99.90;;;;;;5021755;28;20037;-83
2022/12/01 07:15:06;;;;;;;26.10;17.77;;;7.00;99.90;;;;;;5033206;28;20041;-83
2022/12/01 07:17:33;;;;;;;24.65;17.40;;;7.10;99.90;;;;;;5032624;28;20022;-83
2022/12/01 07:19:58;;;;;;;24.27;15.45;;;7.30;99.90;;;;;;5031976;28;20033;-83
2022/12/01 07:22:24;;;;;;;23.90;16.67;;;7.10;99.90;;;;;;5035210;28;20025;-83
2022/12/01 07:24:50;;;;;;;27.10;17.08;;;7.20;99.90;;;;;;5032535;28;20080;-83
2022/12/01 07:27:16;;;;;;;20.85;15.02;;;7.40;99.90;;;;;;5033249;28;20025;-83
2022/12/01 07:29:41;;;;;;;22.30;15.90;;;7.10;99.90;;;;;;5032948;28;20037;-83
2022/12/01 07:32:07;;;;;;;23.88;16.15;;;7.10;99.90;;;;;;5033024;28;20025;-83
2022/12/01 07:34:33;;;;;;;26.95;16.40;;;7.10;99.90;;;;;;5051180;28;20132;-83
2022/12/01 07:36:58;;;;;;;27.65;17.52;;;7.10;99.90;;;;;;5052775;28;20108;-83
2022/12/01 07:39:24;;;;;;;21.58;15.57;;;7.00;99.90;;;;;;5053052;28;20032;-83
2022/12/01 07:41:49;;;;;;;22.73;15.20;;;7.00;99.90;;;;;;5053028;28;20053;-83
2022/12/01 07:44:15;;;;;;;30.65;15.45;;;7.40;99.90;;;;;;5052458;28;20382;-83
2022/12/01 07:46:41;;;;;;;20.10;15.20;;;7.20;99.90;;;;;;5052963;28;20028;-83
2022/12/01 07:49:07;;;;;;;27.48;18.50;;;7.10;99.90;;;;;;5051870;28;20117;-83
2022/12/01 07:51:33;;;;;;;22.40;17.73;;;7.10;99.90;;;;;;5052938;28;20445;-83
2022/12/01 07:54:04;;;;;;;26.95;16.40;;;7.10;99.90;;;;;;5052410;28;20107;-82
2022/12/01 07:56:30;;;;;;;23.25;16.25;;;7.20;99.90;;;;;;5052335;28;20025;-83
2022/12/01 07:58:55;;;;;;;23.38;16.23;;;7.10;99.90;;;;;;5052382;28;20029;-83
2022/12/01 08:01:23;;;;;;;19.85;15.50;;;7.10;99.90;;;;;;5052737;28;20029;-83
2022/12/01 08:03:51;;;;;;;23.40;18.00;;;7.20;99.90;;;;;;5051777;28;20037;-83
2022/12/01 08:06:19;;;;;;;23.63;16.83;;;7.10;99.90;;;;;;5052389;28;20025;-83
2022/12/01 08:08:45;;;;;;;21.30;15.18;;;7.10;99.90;;;;;;5052384;28;20033;-83
2022/12/01 08:11:19;;;;;;;18.50;13.70;;;7.10;99.90;;;;;;5052328;28;20035;-83
2022/12/01 08:13:45;;;;;;;23.38;14.75;;;7.20;99.90;;;;;;5052079;28;20513;-82
2022/12/01 08:16:14;;;;;;;21.00;15.73;;;7.40;99.90;;;;;;5052246;28;20108;-83
2022/12/01 08:18:41;;;;;;;26.70;16.90;;;7.40;99.90;;;;;;5037731;28;20033;-83
2022/12/01 08:21:09;;;;;;;19.80;14.93;;;7.10;99.90;;;;;;5032519;28;20022;-83
2022/12/01 08:23:35;;;;;;;69.00;44.20;;;7.50;99.90;;;;;;5032193;28;20493;-83
2022/12/01 08:26:06;;;;;;;38.30;26.70;;;7.20;99.90;;;;;;5032316;28;20107;-83
2022/12/01 08:28:35;;;;;;;110.82;70.60;;;7.40;99.90;;;;;;5032087;28;20636;-83
2022/12/01 08:31:11;;;;;;;81.18;52.05;;;7.30;99.90;;;;;;5031026;28;20022;-83
2022/12/01 08:33:37;;;;;;;21.70;15.68;;;7.30;99.90;;;;;;5043916;28;20025;-83
2022/12/01 08:36:04;;;;;;;25.05;16.50;;;7.60;99.90;;;;;;5052023;28;20079;-83
2022/12/01 08:38:30;;;;;;;22.63;16.27;;;7.40;99.90;;;;;;5051865;28;20063;-83
2022/12/01 08:41:07;;;;;;;22.08;14.82;;;7.70;99.90;;;;;;5051751;28;20057;-83
2022/12/01 08:43:33;;;;;;;26.77;18.63;;;7.50;99.90;;;;;;5050697;28;20404;-84
2022/12/01 08:46:00;;;;;;;89.95;50.53;;;7.40;99.90;;;;;;5051988;28;20029;-83
2022/12/01 08:48:28;;;;;;;23.77;16.80;;;7.50;99.90;;;;;;5052028;28;20017;-83
2022/12/01 08:51:10;;;;;;;27.33;16.75;;;7.40;99.90;;;;;;5052186;28;20033;-83
2022/12/01 08:53:37;;;;;;;40.55;22.25;;;7.50;99.90;;;;;;5051713;28;20100;-82
2022/12/01 08:56:06;;;;;;;27.55;17.90;;;7.40;99.90;;;;;;5052573;28;20070;-83
2022/12/01 08:58:31;;;;;;;27.42;18.17;;;7.30;99.90;;;;;;5051757;28;20073;-83
2022/12/01 09:01:06;;;;;;;23.70;16.40;;;7.40;99.90;;;;;;5052317;28;20479;-84
2022/12/01 09:03:32;;;;;;;24.45;16.10;;;7.40;99.90;;;;;;5056134;28;20481;-84
2022/12/01 09:06:09;;;;;;;24.08;16.27;;;7.40;99.90;;;;;;5055640;28;20119;-84
2022/12/01 09:08:36;;;;;;;21.67;16.63;;;7.50;99.90;;;;;;5055443;28;20074;-84
2022/12/01 09:11:08;;;;;;;27.45;21.17;;;7.50;99.90;;;;;;5055489;28;20091;-84
2022/12/01 09:13:35;;;;;;;22.95;15.82;;;7.70;99.90;;;;;;5055607;28;20052;-85
2022/12/01 09:16:04;;;;;;;23.27;16.55;;;7.50;99.90;;;;;;5054105;28;20087;-84
2022/12/01 09:18:30;;;;;;;23.02;16.50;;;7.40;99.90;;;;;;5044637;28;20107;-84
2022/12/01 09:20:56;;;;;;;82.03;58.58;;;7.50;99.90;;;;;;5035824;28;20493;-84
2022/12/01 09:23:23;;;;;;;51.42;35.75;;;7.50;99.90;;;;;;5035940;28;20037;-83
2022/12/01 09:25:51;;;;;;;25.33;17.20;;;7.50;99.90;;;;;;5034726;28;20116;-84
2022/12/01 09:28:17;;;;;;;26.13;18.77;;;7.60;99.90;;;;;;5035570;28;20030;-84
2022/12/01 09:30:43;;;;;;;23.50;17.60;;;7.70;99.90;;;;;;5035428;28;20049;-84
2022/12/01 09:33:09;;;;;;;23.02;15.65;;;7.60;99.90;;;;;;5043499;28;20028;-84
2022/12/01 09:35:35;;;;;;;21.38;15.00;;;7.40;99.90;;;;;;5055499;28;20424;-84
2022/12/01 09:38:00;;;;;;;22.45;15.55;;;7.40;99.90;;;;;;5053942;28;20029;-84
2022/12/01 09:40:35;;;;;;;25.77;17.95;;;7.50;99.90;;;;;;5055236;28;20369;-84
2022/12/01 09:43:05;;;;;;;22.63;16.85;;;7.80;99.90;;;;;;5055039;28;20033;-83
2022/12/01 09:45:36;;;;;;;20.95;15.30;;;7.90;99.90;;;;;;5054889;28;20021;-84
2022/12/01 09:48:03;;;;;;;19.80;15.02;;;7.80;99.90;;;;;;5055029;28;20095;-84
2022/12/01 09:50:30;;;;;;;17.50;13.10;;;7.70;99.90;;;;;;5054697;28;20017;-84
2022/12/01 09:53:07;;;;;;;19.35;13.57;;;7.70;99.90;;;;;;5053988;28;20028;-84
2022/12/01 09:55:34;;;;;;;18.45;13.00;;;8.00;99.90;;;;;;5054851;28;20035;-84
2022/12/01 09:58:02;;;;;;;17.55;12.52;;;7.70;99.90;;;;;;5054842;28;20097;-84
2022/12/01 10:00:44;;;;;;;20.60;12.02;;;7.90;99.90;;;;;;5054051;28;20057;-84
2022/12/01 10:03:51;;;;;;;17.52;12.13;;;7.80;99.90;;;;;;5054327;28;20504;-84
2022/12/01 10:06:29;;;;;;;18.23;13.43;;;7.90;99.90;;;;;;5054468;28;20100;-84
2022/12/01 10:09:15;;;;;;;16.48;11.90;;;8.00;99.90;;;;;;5054538;28;20428;-84
2022/12/01 10:11:44;;;;;;;17.45;12.85;;;7.70;99.90;;;;;;5054108;28;20032;-84
2022/12/01 10:14:16;;;;;;;19.52;13.77;;;7.90;99.90;;;;;;5054210;28;20108;-84
2022/12/01 10:17:20;;;;;;;18.42;13.18;;;8.10;99.90;;;;;;5054566;28;20029;-84
2022/12/01 10:19:58;;;;;;;19.20;14.00;;;7.90;99.90;;;;;;5034703;28;20038;-84
2022/12/01 10:22:47;;;;;;;18.70;14.18;;;8.00;99.90;;;;;;5034309;28;20041;-84
2022/12/01 10:25:22;;;;;;;22.50;14.57;;;7.80;99.90;;;;;;5034006;28;20137;-84
2022/12/01 10:28:13;;;;;;;18.67;14.30;;;7.70;99.90;;;;;;5034142;28;20018;-84
2022/12/01 10:30:50;;;;;;;18.83;13.82;;;7.90;99.90;;;;;;5011807;28;20038;-84
2022/12/01 10:33:21;;;;;;;18.00;13.90;;;8.00;99.90;;;;;;4995615;28;20502;-83
2022/12/01 10:35:46;;;;;;;20.30;14.23;;;7.90;99.90;;;;;;5011933;28;20065;-84
2022/12/01 10:38:29;;;;;;;19.55;14.25;;;7.90;99.90;;;;;;5012075;28;20415;-84
2022/12/01 10:40:59;;;;;;;24.27;15.02;;;7.90;99.90;;;;;;5011910;28;20033;-84
2022/12/01 10:43:35;;;;;;;19.52;13.75;;;8.00;99.90;;;;;;5011336;28;20117;-83
2022/12/01 10:46:13;;;;;;;19.10;14.18;;;7.90;99.90;;;;;;5012062;28;20368;-84
2022/12/01 10:48:55;;;;;;;21.63;14.05;;;8.00;99.90;;;;;;5011692;28;20038;-84
2022/12/01 10:51:21;;;;;;;20.65;15.18;;;8.00;99.90;;;;;;5011784;28;20025;-84
2022/12/01 10:53:48;;;;;;;18.70;14.68;;;8.00;99.90;;;;;;5011573;28;20026;-84
2022/12/01 10:56:19;;;;;;;18.75;14.38;;;8.00;99.90;;;;;;5011900;28;20437;-84
2022/12/01 10:58:54;;;;;;;28.40;15.35;;;8.30;99.90;;;;;;5011613;28;20037;-84
2022/12/01 11:01:23;;;;;;;20.05;14.98;;;8.10;99.90;;;;;;5011959;28;20030;-84
2022/12/01 11:03:51;;;;;;;25.23;13.75;;;8.20;99.90;;;;;;5011399;28;20497;-84
2022/12/01 11:06:22;;;;;;;18.33;13.27;;;8.30;99.90;;;;;;4995076;28;20112;-84
2022/12/01 11:09:18;;;;;;;19.80;13.10;;;8.30;99.90;;;;;;5013546;28;20046;-83
2022/12/01 11:11:44;;;;;;;17.10;12.90;;;8.20;99.90;;;;;;5013262;28;20560;-84
2022/12/01 11:14:18;;;;;;;17.52;14.13;;;8.40;99.90;;;;;;5013498;28;20022;-84
2022/12/01 11:16:47;;;;;;;16.77;12.82;;;8.30;99.90;;;;;;5013349;28;20034;-84
2022/12/01 11:19:31;;;;;;;16.45;12.90;;;8.30;99.90;;;;;;5029942;28;20025;-84
2022/12/01 11:22:17;;;;;;;16.80;12.65;;;8.20;99.90;;;;;;5033388;28;20026;-84
2022/12/01 11:25:04;;;;;;;17.17;13.50;;;8.10;99.90;;;;;;5032400;28;20045;-84
2022/12/01 11:27:36;;;;;;;16.58;12.75;;;8.30;99.90;;;;;;5032886;28;20029;-84
2022/12/01 11:30:23;;;;;;;23.48;16.13;;;8.30;99.90;;;;;;5031940;28;20409;-84
2022/12/01 11:32:53;;;;;;;19.13;12.63;;;8.40;99.90;;;;;;5038106;28;20020;-84
2022/12/01 11:35:21;;;;;;;18.63;12.40;;;8.50;99.90;;;;;;5052898;28;20103;-84
2022/12/01 11:37:52;;;;;;;17.30;12.52;;;8.50;99.90;;;;;;5052784;28;20021;-84
2022/12/01 11:40:24;;;;;;;21.15;13.23;;;8.40;99.90;;;;;;5051560;28;20033;-84
2022/12/01 11:42:52;;;;;;;40.30;27.10;;;8.30;99.90;;;;;;5052391;28;20032;-84
2022/12/01 11:45:24;;;;;;;19.52;14.43;;;8.30;99.90;;;;;;5052759;28;20707;-84
2022/12/01 11:48:25;;;;;;;26.52;17.75;;;8.30;99.90;;;;;;5052766;28;20055;-84
2022/12/01 11:51:18;;;;;;;16.75;12.10;;;8.40;99.90;;;;;;5052675;28;20028;-84
2022/12/01 11:53:44;;;;;;;16.08;12.20;;;8.40;99.90;;;;;;5052864;28;20036;-84
2022/12/01 11:56:22;;;;;;;15.02;11.70;;;8.40;99.90;;;;;;5052088;28;20029;-84
2022/12/01 11:58:58;;;;;;;23.45;16.00;;;8.30;99.90;;;;;;5052735;28;20024;-84
2022/12/01 12:01:53;;;;;;;36.58;22.83;;;8.20;99.90;;;;;;5052490;28;20083;-84
2022/12/01 12:04:42;;;;;;;137.57;72.80;;;8.20;99.90;;;;;;5043366;28;20041;-83
2022/12/01 12:07:14;;;;;;;18.67;12.63;;;8.20;99.90;;;;;;5052743;28;20082;-84
2022/12/01 12:09:51;;;;;;;27.33;13.05;;;8.30;99.90;;;;;;5051831;28;20025;-83
2022/12/01 12:13:03;;;;;;;65.07;39.70;;;8.20;99.90;;;;;;5052076;28;20428;-84
2022/12/01 12:15:47;;;;;;;15.70;11.73;;;8.20;99.90;;;;;;5052196;28;20029;-84
2022/12/01 12:18:25;;;;;;;18.98;12.13;;;8.30;99.90;;;;;;5043228;28;20119;-84
2022/12/01 12:20:54;;;;;;;15.63;12.07;;;8.10;99.90;;;;;;5032332;28;20494;-85
2022/12/01 12:23:54;;;;;;;21.70;16.17;;;8.10;99.90;;;;;;5032303;28;20037;-84
2022/12/01 12:26:25;;;;;;;16.95;12.65;;;8.20;99.90;;;;;;4973875;28;20404;-85
2022/12/01 12:29:13;;;;;;;16.60;12.13;;;8.70;99.90;;;;;;4990946;28;20490;-84
2022/12/01 12:32:04;;;;;;;15.02;12.07;;;8.30;99.90;;;;;;4990436;28;20499;-84
2022/12/01 12:35:08;;;;;;;66.57;15.15;;;8.20;99.90;;;;;;4990368;28;20414;-84
2022/12/01 12:38:10;;;;;;;15.55;12.13;;;8.30;99.90;;;;;;4994374;28;20106;-84
2022/12/01 12:40:55;;;;;;;23.35;16.27;;;8.40;99.90;;;;;;4977584;28;20034;-84
2022/12/01 12:43:24;;;;;;;26.67;18.55;;;8.40;99.90;;;;;;4994417;28;20054;-84
2022/12/01 12:46:15;;;;;;;31.80;23.67;;;8.60;99.90;;;;;;4994492;28;20503;-84
2022/12/01 12:49:04;;;;;;;20.17;14.50;;;8.30;99.90;;;;;;4994618;28;20058;-84
2022/12/01 12:51:39;;;;;;;24.02;18.33;;;8.40;99.90;;;;;;4994855;28;20122;-84
2022/12/01 12:54:11;;;;;;;16.20;11.80;;;8.30;99.90;;;;;;4993998;28;20034;-84
2022/12/01 12:56:43;;;;;;;17.30;13.10;;;8.30;99.90;;;;;;4994153;28;20418;-84
2022/12/01 12:59:18;;;;;;;19.05;13.50;;;7.90;99.90;;;;;;4994336;28;20065;-84
2022/12/01 13:01:52;;;;;;;22.20;15.52;;;8.10;99.90;;;;;;4995795;28;20458;-84
2022/12/01 13:04:30;;;;;;;15.38;11.77;;;8.10;99.90;;;;;;5014256;28;20138;-84
2022/12/01 13:07:22;;;;;;;15.93;12.32;;;8.20;99.90;;;;;;5013287;28;20061;-84